createdAt,value
2023-02-01T00:01:28.249Z,29.75
2023-02-01T00:03:56.636Z,30.25
2023-02-01T00:06:25.130Z,29.50
2023-02-01T00:08:57.062Z,30.00
2023-02-01T00:11:26.301Z,30.00
2023-02-01T00:13:55.686Z,30.25
2023-02-01T00:16:27.857Z,29.75
2023-02-01T00:19:00.582Z,31.00
2023-02-01T00:21:29.473Z,30.25
2023-02-01T00:23:58.359Z,29.25
2023-02-01T00:26:39.391Z,30.00
2023-02-01T00:29:13.027Z,30.00
2023-02-01T00:31:42.201Z,29.75
2023-02-01T00:34:14.091Z,28.75
2023-02-01T00:36:43.428Z,30.00
2023-02-01T00:39:12.771Z,32.00
2023-02-01T00:41:42.250Z,31.50
2023-02-01T00:44:10.716Z,32.00
2023-02-01T00:46:39.485Z,30.75
2023-02-01T00:49:09.281Z,32.00
2023-02-01T00:51:37.707Z,33.75
2023-02-01T00:54:06.269Z,32.00
2023-02-01T00:56:34.593Z,36.00
2023-02-01T00:59:02.938Z,36.00
2023-02-01T01:01:31.324Z,36.00
2023-02-01T01:04:01.780Z,36.50
2023-02-01T01:06:33.219Z,38.25
2023-02-01T01:09:05.016Z,37.75
2023-02-01T01:11:37.084Z,37.25
2023-02-01T01:14:06.583Z,40.00
2023-02-01T01:16:35.619Z,41.00
2023-02-01T01:19:04.914Z,35.75
2023-02-01T01:21:33.284Z,36.50
2023-02-01T01:24:01.968Z,36.25
2023-02-01T01:26:31.886Z,36.50
2023-02-01T01:29:05.747Z,38.00
2023-02-01T01:31:34.814Z,39.75
2023-02-01T01:34:03.398Z,39.75
2023-02-01T01:36:32.113Z,39.00
2023-02-01T01:39:00.735Z,41.00
2023-02-01T01:41:32.932Z,35.50
2023-02-01T01:44:05.071Z,37.50
2023-02-01T01:46:42.687Z,39.00
2023-02-01T01:49:22.731Z,38.75
2023-02-01T01:51:58.105Z,35.75
2023-02-01T01:54:39.955Z,37.00
2023-02-01T01:57:31.153Z,39.00
2023-02-01T02:00:10.651Z,40.50
2023-02-01T02:02:41.069Z,39.50
2023-02-01T02:05:10.877Z,36.25
2023-02-01T02:07:42.326Z,34.00
2023-02-01T02:10:13.299Z,35.25
2023-02-01T02:12:44.169Z,34.25
2023-02-01T02:15:15.896Z,34.50
2023-02-01T02:17:53.043Z,33.75
2023-02-01T02:20:50.593Z,33.00
2023-02-01T02:23:50.916Z,34.00
2023-02-01T02:26:36.036Z,33.00
2023-02-01T02:29:37.856Z,34.00
2023-02-01T02:32:26.543Z,32.00
2023-02-01T02:35:15.807Z,33.75
2023-02-01T02:38:10.429Z,32.75
2023-02-01T02:40:47.906Z,32.00
2023-02-01T02:43:52.912Z,32.00
2023-02-01T02:46:51.021Z,32.25
2023-02-01T02:49:23.108Z,31.25
2023-02-01T02:52:41.763Z,29.75
2023-02-01T02:55:11.724Z,29.75
2023-02-01T02:58:02.767Z,27.50
2023-02-01T03:00:52.987Z,31.50
2023-02-01T03:03:39.933Z,28.50
2023-02-01T03:06:18.021Z,29.75
2023-02-01T03:08:47.317Z,31.75
2023-02-01T03:11:18.007Z,30.00
2023-02-01T03:14:02.712Z,33.00
2023-02-01T03:16:39.307Z,30.00
2023-02-01T03:19:11.558Z,29.75
2023-02-01T03:22:10.685Z,31.00
2023-02-01T03:24:47.789Z,30.00
2023-02-01T03:27:16.110Z,29.00
2023-02-01T03:29:58.805Z,27.50
2023-02-01T03:32:27.687Z,28.75
2023-02-01T03:34:56.912Z,30.25
2023-02-01T03:37:30.648Z,29.50
2023-02-01T03:40:13.736Z,28.75
2023-02-01T03:42:50.428Z,28.25
2023-02-01T03:45:46.310Z,27.50
2023-02-01T03:48:17.374Z,27.00
2023-02-01T03:50:53.780Z,29.00
2023-02-01T03:53:25.585Z,30.00
2023-02-01T03:55:56.165Z,28.00
2023-02-01T03:58:25.349Z,28.00
2023-02-01T04:00:59.451Z,28.00
2023-02-01T04:03:29.466Z,28.25
2023-02-01T04:05:57.940Z,26.50
2023-02-01T04:08:29.607Z,27.00
2023-02-01T04:10:58.122Z,26.00
2023-02-01T04:13:26.496Z,25.50
2023-02-01T04:15:54.819Z,24.25
2023-02-01T04:18:23.141Z,26.00
2023-02-01T04:20:51.446Z,24.75
2023-02-01T04:23:19.847Z,26.00
2023-02-01T04:25:48.484Z,23.75
2023-02-01T04:28:16.799Z,23.25
2023-02-01T04:30:45.196Z,22.75
2023-02-01T04:33:15.865Z,23.25
2023-02-01T04:35:44.254Z,22.75
2023-02-01T04:38:13.264Z,25.00
2023-02-01T04:40:41.592Z,25.00
2023-02-01T04:43:10.094Z,25.50
2023-02-01T04:45:38.416Z,23.00
2023-02-01T04:48:07.102Z,23.50
2023-02-01T04:50:35.464Z,23.75
2023-02-01T04:53:03.844Z,24.75
2023-02-01T04:55:32.681Z,21.00
2023-02-01T04:58:01.028Z,22.00
2023-02-01T05:00:29.420Z,22.50
2023-02-01T05:02:58.045Z,21.50
2023-02-01T05:05:26.659Z,21.00
2023-02-01T05:07:55.476Z,20.25
2023-02-01T05:10:24.278Z,24.50
2023-02-01T05:13:11.645Z,22.25
2023-02-01T05:15:40.018Z,22.50
2023-02-01T05:18:08.438Z,22.50
2023-02-01T05:20:37.360Z,22.75
2023-02-01T05:23:05.780Z,21.00
2023-02-01T05:25:34.116Z,21.00
2023-02-01T05:28:02.489Z,22.25
2023-02-01T05:30:31.519Z,20.25
2023-02-01T05:32:59.929Z,21.50
2023-02-01T05:35:28.412Z,20.25
2023-02-01T05:37:56.769Z,21.00
2023-02-01T05:40:25.332Z,20.25
2023-02-01T05:42:53.933Z,20.50
2023-02-01T05:45:22.238Z,20.75
2023-02-01T05:47:50.572Z,19.25
2023-02-01T05:50:19.338Z,17.25
2023-02-01T05:52:47.679Z,19.50
2023-02-01T05:55:16.102Z,20.25
2023-02-01T05:57:44.449Z,19.50
2023-02-01T06:00:13.385Z,19.00
2023-02-01T06:02:42.642Z,19.50
2023-02-01T06:05:11.188Z,17.25
2023-02-01T06:07:39.525Z,18.50
2023-02-01T06:10:08.787Z,19.25
2023-02-01T06:12:37.279Z,20.50
2023-02-01T06:15:06.204Z,19.75
2023-02-01T06:17:34.548Z,21.00
2023-02-01T06:20:02.841Z,21.50
2023-02-01T06:22:31.196Z,21.00
2023-02-01T06:25:00.799Z,19.75
2023-02-01T06:27:29.144Z,20.50
2023-02-01T06:29:57.995Z,20.75
2023-02-01T06:32:26.624Z,18.50
2023-02-01T06:34:54.991Z,20.25
2023-02-01T06:37:23.477Z,19.50
2023-02-01T06:39:51.797Z,19.75
2023-02-01T06:42:20.105Z,18.75
2023-02-01T06:44:48.550Z,18.75
2023-02-01T06:47:16.844Z,21.00
2023-02-01T06:49:45.303Z,21.50
2023-02-01T06:52:13.615Z,20.00
2023-02-01T06:54:42.065Z,18.50
2023-02-01T06:57:13.797Z,19.50
2023-02-01T06:59:42.082Z,19.00
2023-02-01T07:02:17.882Z,16.75
2023-02-01T07:04:46.266Z,19.00
2023-02-01T07:07:15.049Z,19.25
2023-02-01T07:09:43.482Z,21.00
2023-02-01T07:12:11.770Z,18.25
2023-02-01T07:14:40.066Z,19.75
2023-02-01T07:17:08.383Z,21.25
2023-02-01T07:19:37.251Z,19.50
2023-02-01T07:22:05.561Z,20.75
2023-02-01T07:24:33.907Z,20.75
2023-02-01T07:27:02.241Z,20.75
2023-02-01T07:29:30.544Z,18.50
2023-02-01T07:31:58.888Z,19.25
2023-02-01T07:34:27.293Z,19.25
2023-02-01T07:36:55.566Z,18.50
2023-02-01T07:39:23.925Z,18.50
2023-02-01T07:41:52.203Z,19.50
2023-02-01T07:44:24.599Z,20.00
2023-02-01T07:46:53.209Z,18.00
2023-02-01T07:49:21.513Z,19.25
2023-02-01T07:51:49.974Z,19.75
2023-02-01T07:54:18.387Z,18.50
2023-02-01T07:56:46.795Z,18.00
2023-02-01T07:59:15.402Z,19.00
2023-02-01T08:01:43.968Z,17.75
2023-02-01T08:04:16.077Z,19.00
2023-02-01T08:06:44.439Z,18.50
2023-02-01T08:09:13.389Z,20.25
2023-02-01T08:11:41.734Z,18.25
2023-02-01T08:14:10.060Z,17.50
2023-02-01T08:16:39.654Z,18.50
2023-02-01T08:19:08.023Z,17.50
2023-02-01T08:21:39.157Z,18.25
2023-02-01T08:24:08.686Z,18.50
2023-02-01T08:26:37.113Z,19.00
2023-02-01T08:29:08.582Z,18.75
2023-02-01T08:31:36.935Z,20.50
2023-02-01T08:34:10.237Z,21.00
2023-02-01T08:36:40.118Z,20.25
2023-02-01T08:39:10.925Z,19.75
2023-02-01T08:41:39.777Z,19.25
2023-02-01T08:44:08.187Z,21.00
2023-02-01T08:46:36.603Z,19.75
2023-02-01T08:49:04.969Z,21.00
2023-02-01T08:51:33.284Z,20.50
2023-02-01T08:54:02.864Z,19.50
2023-02-01T08:56:31.202Z,22.50
2023-02-01T08:58:59.523Z,21.25
2023-02-01T09:01:27.923Z,20.75
2023-02-01T09:03:56.421Z,22.00
2023-02-01T09:06:25.006Z,20.75
2023-02-01T09:08:53.306Z,21.25
2023-02-01T09:11:21.621Z,20.75
2023-02-01T09:13:50.854Z,20.00
2023-02-01T09:16:20.378Z,19.25
2023-02-01T09:18:56.442Z,19.00
2023-02-01T09:21:31.067Z,19.50
2023-02-01T09:23:59.715Z,20.50
2023-02-01T09:26:32.916Z,20.75
2023-02-01T09:29:02.659Z,19.25
2023-02-01T09:31:31.449Z,19.75
2023-02-01T09:33:59.972Z,19.25
2023-02-01T09:36:30.180Z,21.00
2023-02-01T09:38:59.996Z,19.50
2023-02-01T09:41:57.164Z,20.00
2023-02-01T09:44:29.932Z,20.25
2023-02-01T09:47:01.793Z,18.00
2023-02-01T09:49:34.306Z,22.25
2023-02-01T09:52:09.100Z,19.75
2023-02-01T09:54:56.000Z,21.00
2023-02-01T09:58:00.709Z,19.50
2023-02-01T10:00:35.970Z,18.50
2023-02-01T10:03:04.764Z,19.00
2023-02-01T10:05:51.637Z,20.00
2023-02-01T10:08:32.873Z,19.50
2023-02-01T10:11:29.544Z,18.50
2023-02-01T10:14:16.145Z,18.50
2023-02-01T10:16:53.611Z,19.25
2023-02-01T10:19:56.625Z,20.00
2023-02-01T10:23:13.420Z,20.75
2023-02-01T10:25:54.513Z,20.75
2023-02-01T10:28:25.972Z,21.25
2023-02-01T10:30:59.660Z,19.50
2023-02-01T10:33:54.662Z,20.00
2023-02-01T10:36:42.582Z,21.50
2023-02-01T10:39:15.561Z,21.25
2023-02-01T10:41:47.989Z,19.75
2023-02-01T10:44:25.067Z,20.00
2023-02-01T10:46:53.852Z,19.50
2023-02-01T10:49:43.213Z,21.00
2023-02-01T10:52:40.506Z,19.25
2023-02-01T10:55:30.388Z,18.75
2023-02-01T10:58:04.705Z,19.50
2023-02-01T11:01:05.634Z,19.00
2023-02-01T11:03:39.637Z,17.75
2023-02-01T11:06:32.172Z,17.25
2023-02-01T11:09:14.917Z,18.25
2023-02-01T11:11:49.277Z,20.00
2023-02-01T11:14:20.798Z,20.50
2023-02-01T11:16:56.996Z,19.00
2023-02-01T11:19:25.717Z,21.25
2023-02-01T11:21:56.106Z,18.50
2023-02-01T11:24:36.807Z,20.75
2023-02-01T11:27:10.382Z,19.50
2023-02-01T11:29:45.439Z,19.00
2023-02-01T11:32:17.641Z,18.25
2023-02-01T11:34:57.525Z,19.00
2023-02-01T11:37:39.083Z,19.75
2023-02-01T11:40:31.044Z,18.25
2023-02-01T11:43:10.663Z,20.00
2023-02-01T11:45:41.575Z,22.25
2023-02-01T11:48:26.883Z,22.00
2023-02-01T11:51:32.928Z,22.00
2023-02-01T11:54:41.301Z,23.25
2023-02-01T11:57:39.687Z,21.75
2023-02-01T12:00:35.692Z,22.25
2023-02-01T12:03:32.416Z,22.25
2023-02-01T12:06:32.099Z,23.25
2023-02-01T12:09:30.623Z,24.75
2023-02-01T12:12:19.286Z,25.00
2023-02-01T12:15:39.021Z,24.75
2023-02-01T12:18:42.039Z,26.00
2023-02-01T12:21:22.059Z,27.50
2023-02-01T12:24:27.515Z,26.50
2023-02-01T12:27:48.875Z,24.25
2023-02-01T12:30:35.638Z,25.00
2023-02-01T12:33:13.007Z,25.50
2023-02-01T12:35:56.825Z,25.00
2023-02-01T12:39:02.753Z,25.75
2023-02-01T12:42:03.345Z,24.50
2023-02-01T12:44:44.643Z,24.50
2023-02-01T12:47:31.398Z,23.25
2023-02-01T12:50:09.663Z,23.00
2023-02-01T12:52:50.321Z,26.00
2023-02-01T12:55:27.531Z,25.25
2023-02-01T12:58:09.320Z,25.25
2023-02-01T13:00:53.589Z,27.00
2023-02-01T13:03:38.701Z,27.00
2023-02-01T13:06:35.210Z,26.50
2023-02-01T13:09:29.418Z,27.50
2023-02-01T13:12:03.314Z,27.75
2023-02-01T13:14:40.380Z,28.25
2023-02-01T13:17:16.349Z,27.00
2023-02-01T13:20:12.499Z,26.75
2023-02-01T13:22:47.960Z,27.50
2023-02-01T13:25:49.077Z,26.50
2023-02-01T13:28:46.902Z,27.00
2023-02-01T13:31:50.871Z,27.00
2023-02-01T13:34:51.469Z,26.00
2023-02-01T13:37:58.414Z,27.00
2023-02-01T13:41:09.047Z,27.00
2023-02-01T13:43:40.849Z,28.75
2023-02-01T13:46:16.560Z,28.75
2023-02-01T13:48:56.186Z,28.75
2023-02-01T13:51:46.050Z,29.50
2023-02-01T13:54:33.736Z,29.00
2023-02-01T13:57:04.909Z,27.00
2023-02-01T13:59:42.576Z,27.25
2023-02-01T14:02:44.722Z,27.50
2023-02-01T14:05:36.305Z,27.00
2023-02-01T14:08:11.474Z,27.00
2023-02-01T14:11:02.419Z,27.75
2023-02-01T14:13:40.844Z,27.25
2023-02-01T14:16:10.118Z,27.00
2023-02-01T14:18:39.063Z,28.50
2023-02-01T14:21:39.262Z,28.00
2023-02-01T14:24:26.787Z,27.25
2023-02-01T14:26:59.968Z,28.25
2023-02-01T14:29:34.317Z,29.00
2023-02-01T14:32:05.918Z,29.75
2023-02-01T14:34:39.668Z,29.00
2023-02-01T14:37:13.352Z,29.75
2023-02-01T14:40:14.917Z,29.00
2023-02-01T14:42:54.309Z,28.00
2023-02-01T14:45:26.130Z,28.00
2023-02-01T14:47:55.560Z,29.75
2023-02-01T14:50:38.553Z,29.00
2023-02-01T14:53:15.620Z,28.50
2023-02-01T14:55:54.307Z,29.25
2023-02-01T14:58:44.102Z,27.50
2023-02-01T15:01:36.699Z,30.25
2023-02-01T15:04:23.766Z,29.00
2023-02-01T15:06:59.322Z,29.00
2023-02-01T15:09:38.616Z,30.00
2023-02-01T15:12:16.726Z,30.00
2023-02-01T15:14:53.044Z,31.25
2023-02-01T15:17:37.202Z,29.50
2023-02-01T15:20:20.087Z,30.00
2023-02-01T15:23:20.393Z,30.75
2023-02-01T15:25:49.550Z,29.50
2023-02-01T15:28:18.941Z,29.75
2023-02-01T15:31:03.651Z,30.00
2023-02-01T15:33:33.840Z,30.00
2023-02-01T15:36:20.402Z,29.00
2023-02-01T15:38:48.728Z,30.00
2023-02-01T15:41:23.521Z,29.00
2023-02-01T15:43:57.854Z,28.50
2023-02-01T15:46:26.160Z,28.00
2023-02-01T15:48:56.563Z,31.00
2023-02-01T15:51:29.683Z,30.00
2023-02-01T15:54:02.290Z,28.50
2023-02-01T15:56:41.610Z,27.75
2023-02-01T15:59:20.086Z,29.00
2023-02-01T16:01:49.449Z,29.00
2023-02-01T16:04:23.126Z,29.50
2023-02-01T16:07:05.307Z,30.00
2023-02-01T16:09:40.780Z,30.00
2023-02-01T16:12:33.012Z,29.00
2023-02-01T16:15:01.354Z,27.75
2023-02-01T16:17:29.688Z,30.00
2023-02-01T16:19:59.144Z,28.00
2023-02-01T16:22:27.754Z,28.25
2023-02-01T16:24:56.043Z,30.25
2023-02-01T16:27:24.315Z,30.00
2023-02-01T16:29:52.882Z,30.00
2023-02-01T16:32:23.680Z,30.00
2023-02-01T16:34:51.985Z,30.25
2023-02-01T16:37:26.132Z,29.25
2023-02-01T16:39:54.409Z,30.00
2023-02-01T16:42:22.703Z,31.75
2023-02-01T16:44:51.103Z,32.00
2023-02-01T16:47:25.448Z,29.75
2023-02-01T16:49:54.134Z,31.00
2023-02-01T16:52:25.711Z,31.50
2023-02-01T16:54:54.813Z,30.50
2023-02-01T16:57:25.307Z,32.00
2023-02-01T16:59:53.605Z,30.50
2023-02-01T17:02:23.716Z,30.75
2023-02-01T17:04:52.143Z,30.75
2023-02-01T17:07:21.326Z,31.00
2023-02-01T17:09:49.692Z,32.50
2023-02-01T17:12:30.342Z,31.00
2023-02-01T17:14:59.797Z,30.50
2023-02-01T17:17:39.214Z,30.50
2023-02-01T17:20:08.650Z,32.00
2023-02-01T17:22:36.946Z,32.75
2023-02-01T17:25:07.913Z,32.25
2023-02-01T17:27:38.058Z,34.00
2023-02-01T17:30:07.091Z,32.50
2023-02-01T17:32:35.516Z,32.50
2023-02-01T17:35:05.926Z,32.00
2023-02-01T17:37:37.206Z,33.25
2023-02-01T17:40:06.120Z,32.50
2023-02-01T17:42:34.435Z,31.25
2023-02-01T17:45:24.631Z,32.00
2023-02-01T17:47:53.249Z,31.00
2023-02-01T17:50:21.654Z,32.25
2023-02-01T17:52:50.080Z,31.75
2023-02-01T17:55:24.200Z,31.50
2023-02-01T17:57:52.951Z,32.00
2023-02-01T18:00:22.655Z,31.25
2023-02-01T18:02:51.010Z,31.00
2023-02-01T18:05:30.175Z,31.00
2023-02-01T18:07:58.473Z,32.00
2023-02-01T18:10:26.795Z,30.50
2023-02-01T18:12:56.057Z,33.50
2023-02-01T18:15:28.832Z,32.25
2023-02-01T18:17:57.156Z,31.75
2023-02-01T18:20:27.300Z,32.00
2023-02-01T18:22:55.606Z,29.25
2023-02-01T18:25:25.940Z,30.50
2023-02-01T18:27:56.445Z,33.25
2023-02-01T18:30:32.907Z,30.00
2023-02-01T18:33:01.360Z,30.50
2023-02-01T18:35:31.884Z,32.25
2023-02-01T18:38:00.557Z,32.25
2023-02-01T18:40:35.669Z,31.00
2023-02-01T18:43:04.106Z,30.75
2023-02-01T18:45:39.673Z,31.25
2023-02-01T18:48:09.817Z,31.00
2023-02-01T18:50:43.028Z,30.75
2023-02-01T18:53:22.678Z,32.00
2023-02-01T18:55:51.489Z,30.75
2023-02-01T18:58:19.964Z,31.25
2023-02-01T19:00:48.731Z,32.25
2023-02-01T19:03:17.703Z,31.50
2023-02-01T19:05:47.685Z,32.50
2023-02-01T19:08:16.438Z,31.25
2023-02-01T19:10:44.906Z,31.75
2023-02-01T19:13:14.427Z,32.00
2023-02-01T19:15:44.702Z,32.00
2023-02-01T19:18:13.632Z,31.75
2023-02-01T19:20:45.907Z,31.00
2023-02-01T19:23:15.357Z,30.50
2023-02-01T19:25:48.632Z,32.00
2023-02-01T19:28:17.678Z,31.75
2023-02-01T19:30:46.138Z,30.50
2023-02-01T19:33:14.832Z,31.25
2023-02-01T19:35:43.164Z,33.00
2023-02-01T19:38:12.397Z,30.25
2023-02-01T19:40:40.737Z,30.75
2023-02-01T19:43:09.036Z,31.00
2023-02-01T19:45:37.539Z,30.50
2023-02-01T19:48:08.382Z,31.25
2023-02-01T19:50:36.748Z,30.75
2023-02-01T19:53:05.078Z,31.50
2023-02-01T19:55:33.639Z,31.50
2023-02-01T19:58:03.316Z,30.75
2023-02-01T20:00:30.774Z,31.75
2023-02-01T20:02:59.459Z,30.50
2023-02-01T20:05:27.853Z,30.75
2023-02-01T20:07:56.260Z,32.25
2023-02-01T20:10:24.767Z,31.50
2023-02-01T20:12:53.138Z,32.00
2023-02-01T20:15:25.407Z,31.25
2023-02-01T20:17:54.023Z,31.75
2023-02-01T20:20:22.458Z,32.00
2023-02-01T20:22:52.375Z,31.00
2023-02-01T20:25:20.785Z,31.25
2023-02-01T20:27:53.622Z,30.50
2023-02-01T20:30:22.485Z,31.50
2023-02-01T20:32:51.616Z,31.50
2023-02-01T20:35:20.803Z,31.75
2023-02-01T20:37:49.931Z,32.50
2023-02-01T20:40:18.714Z,30.00
2023-02-01T20:42:47.163Z,32.50
2023-02-01T20:45:15.533Z,30.00
2023-02-01T20:47:44.202Z,31.00
2023-02-01T20:50:13.166Z,31.25
2023-02-01T20:52:41.537Z,30.25
2023-02-01T20:55:10.230Z,32.25
2023-02-01T20:57:38.605Z,33.00
2023-02-01T21:00:13.577Z,31.00
2023-02-01T21:02:41.952Z,32.00
2023-02-01T21:05:11.265Z,31.25
2023-02-01T21:07:39.673Z,32.75
2023-02-01T21:10:08.753Z,32.25
2023-02-01T21:12:37.331Z,32.25
2023-02-01T21:15:07.408Z,31.50
2023-02-01T21:17:35.759Z,32.75
2023-02-01T21:20:04.171Z,32.75
2023-02-01T21:22:32.526Z,31.75
2023-02-01T21:25:02.066Z,32.50
2023-02-01T21:27:30.574Z,32.75
2023-02-01T21:29:58.917Z,32.25
2023-02-01T21:32:27.295Z,32.00
2023-02-01T21:34:55.598Z,32.25
2023-02-01T21:37:26.570Z,32.25
2023-02-01T21:39:54.907Z,32.50
2023-02-01T21:42:25.428Z,32.50
2023-02-01T21:44:54.383Z,31.50
2023-02-01T21:47:26.313Z,32.50
2023-02-01T21:49:55.827Z,32.50
2023-02-01T21:52:24.711Z,32.75
2023-02-01T21:55:00.159Z,32.75
2023-02-01T21:57:30.344Z,33.00
2023-02-01T21:59:59.819Z,33.75
2023-02-01T22:02:28.986Z,32.75
2023-02-01T22:04:58.672Z,34.00
2023-02-01T22:07:27.205Z,34.00
2023-02-01T22:09:55.552Z,32.00
2023-02-01T22:12:24.160Z,34.50
2023-02-01T22:14:52.458Z,32.50
2023-02-01T22:17:20.763Z,33.25
2023-02-01T22:19:49.066Z,32.50
2023-02-01T22:22:17.722Z,33.25
2023-02-01T22:24:46.079Z,33.00
2023-02-01T22:27:14.833Z,34.00
2023-02-01T22:29:44.510Z,33.00
2023-02-01T22:32:14.773Z,33.25
2023-02-01T22:34:43.333Z,33.75
2023-02-01T22:37:12.276Z,32.75
2023-02-01T22:39:41.056Z,33.50
2023-02-01T22:42:09.577Z,33.00
2023-02-01T22:44:38.534Z,32.75
2023-02-01T22:47:07.350Z,32.00
2023-02-01T22:49:35.630Z,35.00
2023-02-01T22:52:03.920Z,35.00
2023-02-01T22:54:32.247Z,34.00
2023-02-01T22:57:01.199Z,33.50
2023-02-01T22:59:29.574Z,34.00
2023-02-01T23:01:57.864Z,34.00
2023-02-01T23:04:26.239Z,34.50
2023-02-01T23:06:54.656Z,34.00
2023-02-01T23:09:29.077Z,33.00
2023-02-01T23:11:57.403Z,33.00
2023-02-01T23:14:25.843Z,33.25
2023-02-01T23:16:54.204Z,33.50
2023-02-01T23:19:22.765Z,33.75
2023-02-01T23:21:51.259Z,33.75
2023-02-01T23:24:19.763Z,34.75
2023-02-01T23:26:48.207Z,34.00
2023-02-01T23:29:19.114Z,34.50
2023-02-01T23:31:47.568Z,34.50
2023-02-01T23:34:16.131Z,36.25
2023-02-01T23:36:44.455Z,35.50
2023-02-01T23:39:12.851Z,34.50
2023-02-01T23:41:41.134Z,36.50
2023-02-01T23:44:09.565Z,36.00
2023-02-01T23:46:48.047Z,34.75
2023-02-01T23:49:18.656Z,35.00
2023-02-01T23:51:51.052Z,35.75
2023-02-01T23:54:19.913Z,37.25
2023-02-01T23:56:48.374Z,36.75
2023-02-01T23:59:22.080Z,37.25
